sensor_id;sensor_type;location;lat;lon;timestamp;P1;durP1;ratioP1;P2;durP2;ratioP2
14235;SDS011;7202;50.718;7.072;2022-09-12T00:01:34;15.93;;;11.90;;
14235;SDS011;7202;50.718;7.072;2022-09-12T00:04:03;12.27;;;10.82;;
14235;SDS011;7202;50.718;7.072;2022-09-12T00:06:32;13.88;;;11.30;;
14235;SDS011;7202;50.718;7.072;2022-09-12T00:09:04;14.45;;;10.95;;
14235;SDS011;7202;50.718;7.072;2022-09-12T00:11:34;13.25;;;11.25;;
14235;SDS011;7202;50.718;7.072;2022-09-12T00:14:03;15.45;;;11.45;;
14235;SDS011;7202;50.718;7.072;2022-09-12T00:16:34;14.95;;;11.65;;
14235;SDS011;7202;50.718;7.072;2022-09-12T00:19:04;16.52;;;11.40;;
14235;SDS011;7202;50.718;7.072;2022-09-12T00:21:34;15.90;;;11.68;;
14235;SDS011;7202;50.718;7.072;2022-09-12T00:24:05;14.80;;;10.73;;
14235;SDS011;7202;50.718;7.072;2022-09-12T00:26:33;15.15;;;11.07;;
14235;SDS011;7202;50.718;7.072;2022-09-12T00:29:02;13.77;;;10.95;;
14235;SDS011;7202;50.718;7.072;2022-09-12T00:31:32;13.98;;;11.15;;
14235;SDS011;7202;50.718;7.072;2022-09-12T00:34:01;16.50;;;11.55;;
14235;SDS011;7202;50.718;7.072;2022-09-12T00:36:29;13.95;;;11.70;;
14235;SDS011;7202;50.718;7.072;2022-09-12T00:38:58;14.95;;;11.30;;
14235;SDS011;7202;50.718;7.072;2022-09-12T00:41:27;19.23;;;11.82;;
14235;SDS011;7202;50.718;7.072;2022-09-12T00:43:58;16.35;;;11.90;;
14235;SDS011;7202;50.718;7.072;2022-09-12T00:46:30;15.00;;;12.15;;
14235;SDS011;7202;50.718;7.072;2022-09-12T00:49:08;14.77;;;11.55;;
14235;SDS011;7202;50.718;7.072;2022-09-12T00:51:41;13.60;;;11.02;;
14235;SDS011;7202;50.718;7.072;2022-09-12T00:54:14;13.88;;;11.15;;
14235;SDS011;7202;50.718;7.072;2022-09-12T00:56:48;12.32;;;10.77;;
14235;SDS011;7202;50.718;7.072;2022-09-12T00:59:20;15.70;;;12.02;;
14235;SDS011;7202;50.718;7.072;2022-09-12T01:01:53;16.25;;;12.32;;
14235;SDS011;7202;50.718;7.072;2022-09-12T01:04:24;13.68;;;11.30;;
14235;SDS011;7202;50.718;7.072;2022-09-12T01:06:55;14.77;;;11.02;;
14235;SDS011;7202;50.718;7.072;2022-09-12T01:09:25;15.32;;;11.73;;
14235;SDS011;7202;50.718;7.072;2022-09-12T01:11:53;14.73;;;11.60;;
14235;SDS011;7202;50.718;7.072;2022-09-12T01:14:22;14.15;;;11.75;;
14235;SDS011;7202;50.718;7.072;2022-09-12T01:16:51;14.57;;;12.35;;
14235;SDS011;7202;50.718;7.072;2022-09-12T01:19:30;16.75;;;12.93;;
14235;SDS011;7202;50.718;7.072;2022-09-12T01:22:35;16.35;;;12.10;;
14235;SDS011;7202;50.718;7.072;2022-09-12T01:25:20;15.75;;;12.32;;
14235;SDS011;7202;50.718;7.072;2022-09-12T01:28:00;17.73;;;12.32;;
14235;SDS011;7202;50.718;7.072;2022-09-12T01:30:46;14.38;;;11.82;;
14235;SDS011;7202;50.718;7.072;2022-09-12T01:33:22;15.68;;;12.40;;
14235;SDS011;7202;50.718;7.072;2022-09-12T01:36:11;19.42;;;13.50;;
14235;SDS011;7202;50.718;7.072;2022-09-12T01:38:51;16.67;;;12.40;;
14235;SDS011;7202;50.718;7.072;2022-09-12T01:41:26;16.48;;;11.82;;
14235;SDS011;7202;50.718;7.072;2022-09-12T01:44:00;17.15;;;12.15;;
14235;SDS011;7202;50.718;7.072;2022-09-12T01:46:36;21.13;;;13.80;;
14235;SDS011;7202;50.718;7.072;2022-09-12T01:49:13;17.90;;;13.43;;
14235;SDS011;7202;50.718;7.072;2022-09-12T01:51:46;14.80;;;12.27;;
14235;SDS011;7202;50.718;7.072;2022-09-12T01:54:25;18.50;;;13.13;;
14235;SDS011;7202;50.718;7.072;2022-09-12T01:57:00;17.38;;;12.55;;
14235;SDS011;7202;50.718;7.072;2022-09-12T01:59:33;17.58;;;12.32;;
14235;SDS011;7202;50.718;7.072;2022-09-12T02:02:10;16.63;;;12.88;;
14235;SDS011;7202;50.718;7.072;2022-09-12T02:04:43;14.23;;;12.23;;
14235;SDS011;7202;50.718;7.072;2022-09-12T02:07:18;15.95;;;12.55;;
14235;SDS011;7202;50.718;7.072;2022-09-12T02:09:51;16.48;;;11.75;;
14235;SDS011;7202;50.718;7.072;2022-09-12T02:12:24;14.43;;;12.30;;
14235;SDS011;7202;50.718;7.072;2022-09-12T02:14:57;16.42;;;12.95;;
14235;SDS011;7202;50.718;7.072;2022-09-12T02:17:33;15.10;;;12.23;;
14235;SDS011;7202;50.718;7.072;2022-09-12T02:20:06;12.35;;;10.98;;
14235;SDS011;7202;50.718;7.072;2022-09-12T02:23:00;14.98;;;12.48;;
14235;SDS011;7202;50.718;7.072;2022-09-12T02:25:35;13.98;;;11.63;;
14235;SDS011;7202;50.718;7.072;2022-09-12T02:28:09;17.23;;;11.43;;
14235;SDS011;7202;50.718;7.072;2022-09-12T02:30:42;13.18;;;11.32;;
14235;SDS011;7202;50.718;7.072;2022-09-12T02:33:18;16.50;;;12.18;;
14235;SDS011;7202;50.718;7.072;2022-09-12T02:35:52;16.25;;;12.10;;
14235;SDS011;7202;50.718;7.072;2022-09-12T02:38:31;16.15;;;11.70;;
14235;SDS011;7202;50.718;7.072;2022-09-12T02:41:05;18.23;;;13.18;;
14235;SDS011;7202;50.718;7.072;2022-09-12T02:43:34;14.13;;;11.40;;
14235;SDS011;7202;50.718;7.072;2022-09-12T02:46:04;16.05;;;12.52;;
14235;SDS011;7202;50.718;7.072;2022-09-12T02:48:39;16.42;;;12.13;;
14235;SDS011;7202;50.718;7.072;2022-09-12T02:51:10;17.13;;;12.73;;
14235;SDS011;7202;50.718;7.072;2022-09-12T02:53:39;17.70;;;12.70;;
14235;SDS011;7202;50.718;7.072;2022-09-12T02:56:10;19.00;;;13.30;;
14235;SDS011;7202;50.718;7.072;2022-09-12T02:58:45;15.07;;;11.55;;
14235;SDS011;7202;50.718;7.072;2022-09-12T03:01:17;15.52;;;12.18;;
14235;SDS011;7202;50.718;7.072;2022-09-12T03:04:03;17.92;;;11.95;;
14235;SDS011;7202;50.718;7.072;2022-09-12T03:06:49;14.77;;;11.63;;
14235;SDS011;7202;50.718;7.072;2022-09-12T03:09:25;17.83;;;11.60;;
14235;SDS011;7202;50.718;7.072;2022-09-12T03:12:07;16.45;;;11.20;;
14235;SDS011;7202;50.718;7.072;2022-09-12T03:14:43;14.23;;;11.18;;
14235;SDS011;7202;50.718;7.072;2022-09-12T03:17:29;17.65;;;12.00;;
14235;SDS011;7202;50.718;7.072;2022-09-12T03:20:21;16.60;;;11.05;;
14235;SDS011;7202;50.718;7.072;2022-09-12T03:23:02;13.73;;;11.05;;
14235;SDS011;7202;50.718;7.072;2022-09-12T03:25:37;15.23;;;11.63;;
14235;SDS011;7202;50.718;7.072;2022-09-12T03:28:11;17.15;;;11.82;;
14235;SDS011;7202;50.718;7.072;2022-09-12T03:30:43;15.40;;;11.82;;
14235;SDS011;7202;50.718;7.072;2022-09-12T03:33:13;14.65;;;11.85;;
14235;SDS011;7202;50.718;7.072;2022-09-12T03:35:45;15.15;;;11.63;;
14235;SDS011;7202;50.718;7.072;2022-09-12T03:38:14;16.80;;;11.50;;
14235;SDS011;7202;50.718;7.072;2022-09-12T03:40:43;17.52;;;12.02;;
14235;SDS011;7202;50.718;7.072;2022-09-12T03:43:19;16.83;;;12.05;;
14235;SDS011;7202;50.718;7.072;2022-09-12T03:45:49;14.73;;;11.57;;
14235;SDS011;7202;50.718;7.072;2022-09-12T03:48:19;15.10;;;11.52;;
14235;SDS011;7202;50.718;7.072;2022-09-12T03:50:49;15.57;;;11.95;;
14235;SDS011;7202;50.718;7.072;2022-09-12T03:53:18;18.45;;;12.80;;
14235;SDS011;7202;50.718;7.072;2022-09-12T03:55:46;17.02;;;12.40;;
14235;SDS011;7202;50.718;7.072;2022-09-12T03:58:15;18.35;;;12.75;;
14235;SDS011;7202;50.718;7.072;2022-09-12T04:00:43;17.10;;;12.73;;
14235;SDS011;7202;50.718;7.072;2022-09-12T04:03:12;18.55;;;12.38;;
14235;SDS011;7202;50.718;7.072;2022-09-12T04:05:41;14.02;;;11.25;;
14235;SDS011;7202;50.718;7.072;2022-09-12T04:08:11;17.58;;;11.90;;
14235;SDS011;7202;50.718;7.072;2022-09-12T04:10:40;14.32;;;10.88;;
14235;SDS011;7202;50.718;7.072;2022-09-12T04:13:08;17.73;;;11.70;;
14235;SDS011;7202;50.718;7.072;2022-09-12T04:15:37;17.45;;;12.60;;
14235;SDS011;7202;50.718;7.072;2022-09-12T04:18:05;14.25;;;10.98;;
14235;SDS011;7202;50.718;7.072;2022-09-12T04:20:34;14.65;;;11.77;;
14235;SDS011;7202;50.718;7.072;2022-09-12T04:23:03;13.20;;;10.35;;
14235;SDS011;7202;50.718;7.072;2022-09-12T04:25:33;14.48;;;11.65;;
14235;SDS011;7202;50.718;7.072;2022-09-12T04:28:01;14.32;;;11.02;;
14235;SDS011;7202;50.718;7.072;2022-09-12T04:30:31;14.27;;;10.80;;
14235;SDS011;7202;50.718;7.072;2022-09-12T04:33:00;15.25;;;11.18;;
14235;SDS011;7202;50.718;7.072;2022-09-12T04:35:34;14.02;;;10.88;;
14235;SDS011;7202;50.718;7.072;2022-09-12T04:38:03;13.13;;;11.40;;
14235;SDS011;7202;50.718;7.072;2022-09-12T04:40:31;16.48;;;12.48;;
14235;SDS011;7202;50.718;7.072;2022-09-12T04:43:01;15.35;;;12.18;;
14235;SDS011;7202;50.718;7.072;2022-09-12T04:45:30;16.83;;;12.27;;
14235;SDS011;7202;50.718;7.072;2022-09-12T04:47:59;16.73;;;11.35;;
14235;SDS011;7202;50.718;7.072;2022-09-12T04:50:29;18.00;;;12.35;;
14235;SDS011;7202;50.718;7.072;2022-09-12T04:52:57;15.23;;;12.10;;
14235;SDS011;7202;50.718;7.072;2022-09-12T04:55:26;16.90;;;12.55;;
14235;SDS011;7202;50.718;7.072;2022-09-12T04:57:54;18.73;;;13.25;;
14235;SDS011;7202;50.718;7.072;2022-09-12T05:00:24;17.50;;;14.18;;
14235;SDS011;7202;50.718;7.072;2022-09-12T05:02:53;20.17;;;13.55;;
14235;SDS011;7202;50.718;7.072;2022-09-12T05:05:21;18.23;;;12.82;;
14235;SDS011;7202;50.718;7.072;2022-09-12T05:07:50;17.45;;;12.30;;
14235;SDS011;7202;50.718;7.072;2022-09-12T05:10:18;15.45;;;12.20;;
14235;SDS011;7202;50.718;7.072;2022-09-12T05:12:49;16.77;;;12.32;;
14235;SDS011;7202;50.718;7.072;2022-09-12T05:15:18;15.23;;;12.15;;
14235;SDS011;7202;50.718;7.072;2022-09-12T05:17:48;18.77;;;12.57;;
14235;SDS011;7202;50.718;7.072;2022-09-12T05:20:16;15.05;;;11.77;;
14235;SDS011;7202;50.718;7.072;2022-09-12T05:22:45;14.95;;;12.27;;
14235;SDS011;7202;50.718;7.072;2022-09-12T05:25:14;15.73;;;12.40;;
14235;SDS011;7202;50.718;7.072;2022-09-12T05:27:42;16.48;;;12.25;;
14235;SDS011;7202;50.718;7.072;2022-09-12T05:30:16;17.40;;;13.00;;
14235;SDS011;7202;50.718;7.072;2022-09-12T05:32:44;16.73;;;12.00;;
14235;SDS011;7202;50.718;7.072;2022-09-12T05:35:15;23.00;;;13.32;;
14235;SDS011;7202;50.718;7.072;2022-09-12T05:37:44;16.63;;;11.93;;
14235;SDS011;7202;50.718;7.072;2022-09-12T05:40:12;18.13;;;12.60;;
14235;SDS011;7202;50.718;7.072;2022-09-12T05:42:43;20.48;;;12.95;;
14235;SDS011;7202;50.718;7.072;2022-09-12T05:45:12;14.65;;;11.50;;
14235;SDS011;7202;50.718;7.072;2022-09-12T05:47:40;16.50;;;12.70;;
14235;SDS011;7202;50.718;7.072;2022-09-12T05:50:10;17.73;;;12.73;;
14235;SDS011;7202;50.718;7.072;2022-09-12T05:52:40;16.02;;;11.48;;
14235;SDS011;7202;50.718;7.072;2022-09-12T05:55:08;16.52;;;12.75;;
14235;SDS011;7202;50.718;7.072;2022-09-12T05:57:37;18.92;;;13.73;;
14235;SDS011;7202;50.718;7.072;2022-09-12T06:00:06;18.00;;;13.25;;
14235;SDS011;7202;50.718;7.072;2022-09-12T06:02:38;20.48;;;13.80;;
14235;SDS011;7202;50.718;7.072;2022-09-12T06:05:07;20.08;;;14.10;;
14235;SDS011;7202;50.718;7.072;2022-09-12T06:07:36;20.30;;;14.45;;
14235;SDS011;7202;50.718;7.072;2022-09-12T06:10:06;18.80;;;14.52;;
14235;SDS011;7202;50.718;7.072;2022-09-12T06:12:36;19.00;;;14.13;;
14235;SDS011;7202;50.718;7.072;2022-09-12T06:15:05;25.77;;;15.93;;
14235;SDS011;7202;50.718;7.072;2022-09-12T06:17:33;22.10;;;14.07;;
14235;SDS011;7202;50.718;7.072;2022-09-12T06:20:02;21.48;;;14.90;;
14235;SDS011;7202;50.718;7.072;2022-09-12T06:22:31;21.30;;;14.32;;
14235;SDS011;7202;50.718;7.072;2022-09-12T06:24:59;22.33;;;14.82;;
14235;SDS011;7202;50.718;7.072;2022-09-12T06:27:30;23.67;;;14.88;;
14235;SDS011;7202;50.718;7.072;2022-09-12T06:29:58;24.77;;;15.77;;
14235;SDS011;7202;50.718;7.072;2022-09-12T06:32:28;22.77;;;15.98;;
14235;SDS011;7202;50.718;7.072;2022-09-12T06:34:57;26.35;;;16.58;;
14235;SDS011;7202;50.718;7.072;2022-09-12T06:37:25;23.60;;;15.32;;
14235;SDS011;7202;50.718;7.072;2022-09-12T06:39:54;22.60;;;15.52;;
14235;SDS011;7202;50.718;7.072;2022-09-12T06:42:23;26.52;;;17.08;;
14235;SDS011;7202;50.718;7.072;2022-09-12T06:44:57;25.67;;;16.73;;
14235;SDS011;7202;50.718;7.072;2022-09-12T06:47:26;24.95;;;16.77;;
14235;SDS011;7202;50.718;7.072;2022-09-12T06:49:54;22.23;;;15.98;;
14235;SDS011;7202;50.718;7.072;2022-09-12T06:52:23;23.23;;;15.88;;
14235;SDS011;7202;50.718;7.072;2022-09-12T06:54:51;23.33;;;16.02;;
14235;SDS011;7202;50.718;7.072;2022-09-12T06:57:20;29.23;;;17.20;;
14235;SDS011;7202;50.718;7.072;2022-09-12T06:59:48;25.25;;;15.80;;
14235;SDS011;7202;50.718;7.072;2022-09-12T07:02:18;24.25;;;17.33;;
14235;SDS011;7202;50.718;7.072;2022-09-12T07:04:47;26.42;;;16.98;;
14235;SDS011;7202;50.718;7.072;2022-09-12T07:07:17;23.65;;;16.60;;
14235;SDS011;7202;50.718;7.072;2022-09-12T07:09:46;27.00;;;18.40;;
14235;SDS011;7202;50.718;7.072;2022-09-12T07:12:15;26.85;;;18.60;;
14235;SDS011;7202;50.718;7.072;2022-09-12T07:14:43;25.52;;;15.95;;
14235;SDS011;7202;50.718;7.072;2022-09-12T07:17:12;25.75;;;16.83;;
14235;SDS011;7202;50.718;7.072;2022-09-12T07:19:42;28.65;;;17.55;;
14235;SDS011;7202;50.718;7.072;2022-09-12T07:22:11;21.58;;;15.45;;
14235;SDS011;7202;50.718;7.072;2022-09-12T07:24:39;23.38;;;14.90;;
14235;SDS011;7202;50.718;7.072;2022-09-12T07:27:08;18.08;;;13.05;;
14235;SDS011;7202;50.718;7.072;2022-09-12T07:29:36;18.08;;;12.63;;
14235;SDS011;7202;50.718;7.072;2022-09-12T07:32:05;19.17;;;12.68;;
14235;SDS011;7202;50.718;7.072;2022-09-12T07:34:34;14.50;;;11.55;;
14235;SDS011;7202;50.718;7.072;2022-09-12T07:37:04;17.05;;;12.13;;
14235;SDS011;7202;50.718;7.072;2022-09-12T07:39:33;17.98;;;12.27;;
14235;SDS011;7202;50.718;7.072;2022-09-12T07:42:01;16.50;;;11.85;;
14235;SDS011;7202;50.718;7.072;2022-09-12T07:44:30;20.52;;;14.25;;
14235;SDS011;7202;50.718;7.072;2022-09-12T07:46:59;18.10;;;12.48;;
14235;SDS011;7202;50.718;7.072;2022-09-12T07:49:27;15.30;;;11.23;;
14235;SDS011;7202;50.718;7.072;2022-09-12T07:51:56;14.93;;;10.98;;
14235;SDS011;7202;50.718;7.072;2022-09-12T07:54:26;14.05;;;10.93;;
14235;SDS011;7202;50.718;7.072;2022-09-12T07:56:54;13.23;;;10.40;;
14235;SDS011;7202;50.718;7.072;2022-09-12T07:59:23;13.50;;;9.75;;
14235;SDS011;7202;50.718;7.072;2022-09-12T08:02:12;12.40;;;9.05;;
14235;SDS011;7202;50.718;7.072;2022-09-12T08:04:43;12.95;;;9.48;;
14235;SDS011;7202;50.718;7.072;2022-09-12T08:07:14;10.55;;;8.48;;
14235;SDS011;7202;50.718;7.072;2022-09-12T08:09:45;15.38;;;9.68;;
14235;SDS011;7202;50.718;7.072;2022-09-12T08:12:14;17.15;;;10.88;;
14235;SDS011;7202;50.718;7.072;2022-09-12T08:14:43;12.32;;;9.07;;
14235;SDS011;7202;50.718;7.072;2022-09-12T08:17:12;14.73;;;10.60;;
14235;SDS011;7202;50.718;7.072;2022-09-12T08:19:41;12.32;;;9.88;;
14235;SDS011;7202;50.718;7.072;2022-09-12T08:22:10;10.45;;;8.77;;
14235;SDS011;7202;50.718;7.072;2022-09-12T08:24:39;10.63;;;8.50;;
14235;SDS011;7202;50.718;7.072;2022-09-12T08:27:09;11.20;;;8.05;;
14235;SDS011;7202;50.718;7.072;2022-09-12T08:29:38;12.02;;;8.80;;
14235;SDS011;7202;50.718;7.072;2022-09-12T08:32:06;19.30;;;9.48;;
14235;SDS011;7202;50.718;7.072;2022-09-12T08:34:35;15.85;;;8.75;;
14235;SDS011;7202;50.718;7.072;2022-09-12T08:37:04;15.65;;;8.43;;
14235;SDS011;7202;50.718;7.072;2022-09-12T08:39:32;11.27;;;8.10;;
14235;SDS011;7202;50.718;7.072;2022-09-12T08:42:01;11.65;;;8.02;;
14235;SDS011;7202;50.718;7.072;2022-09-12T08:44:52;9.40;;;7.22;;
14235;SDS011;7202;50.718;7.072;2022-09-12T08:47:32;12.52;;;7.40;;
14235;SDS011;7202;50.718;7.072;2022-09-12T08:50:09;7.85;;;6.70;;
14235;SDS011;7202;50.718;7.072;2022-09-12T08:52:48;8.25;;;7.00;;
14235;SDS011;7202;50.718;7.072;2022-09-12T08:55:26;10.57;;;6.60;;
14235;SDS011;7202;50.718;7.072;2022-09-12T08:57:58;8.50;;;6.80;;
14235;SDS011;7202;50.718;7.072;2022-09-12T09:00:33;8.32;;;6.35;;
14235;SDS011;7202;50.718;7.072;2022-09-12T09:05:57;7.47;;;5.65;;
14235;SDS011;7202;50.718;7.072;2022-09-12T09:08:37;8.07;;;6.10;;
14235;SDS011;7202;50.718;7.072;2022-09-12T09:11:17;7.85;;;5.90;;
14235;SDS011;7202;50.718;7.072;2022-09-12T09:13:57;6.60;;;5.97;;
14235;SDS011;7202;50.718;7.072;2022-09-12T09:16:54;6.75;;;6.05;;
14235;SDS011;7202;50.718;7.072;2022-09-12T09:19:25;8.25;;;6.70;;
14235;SDS011;7202;50.718;7.072;2022-09-12T09:21:56;6.20;;;5.47;;
14235;SDS011;7202;50.718;7.072;2022-09-12T09:24:31;6.68;;;6.00;;
14235;SDS011;7202;50.718;7.072;2022-09-12T09:27:04;8.82;;;6.22;;
14235;SDS011;7202;50.718;7.072;2022-09-12T09:29:58;7.63;;;6.18;;
14235;SDS011;7202;50.718;7.072;2022-09-12T09:32:30;12.95;;;6.30;;
14235;SDS011;7202;50.718;7.072;2022-09-12T09:35:09;7.53;;;5.53;;
14235;SDS011;7202;50.718;7.072;2022-09-12T09:37:42;6.00;;;5.40;;
14235;SDS011;7202;50.718;7.072;2022-09-12T09:40:25;6.88;;;5.70;;
14235;SDS011;7202;50.718;7.072;2022-09-12T09:43:04;9.45;;;5.40;;
14235;SDS011;7202;50.718;7.072;2022-09-12T09:45:41;6.75;;;5.57;;
14235;SDS011;7202;50.718;7.072;2022-09-12T09:48:18;6.10;;;5.45;;
14235;SDS011;7202;50.718;7.072;2022-09-12T09:50:50;5.28;;;4.78;;
14235;SDS011;7202;50.718;7.072;2022-09-12T09:53:25;6.28;;;5.50;;
14235;SDS011;7202;50.718;7.072;2022-09-12T09:56:01;6.43;;;5.70;;
14235;SDS011;7202;50.718;7.072;2022-09-12T09:58:35;6.50;;;5.35;;
14235;SDS011;7202;50.718;7.072;2022-09-12T10:01:04;5.35;;;4.78;;
14235;SDS011;7202;50.718;7.072;2022-09-12T10:03:47;4.70;;;4.22;;
14235;SDS011;7202;50.718;7.072;2022-09-12T10:06:22;4.53;;;4.13;;
14235;SDS011;7202;50.718;7.072;2022-09-12T10:09:03;7.63;;;4.75;;
14235;SDS011;7202;50.718;7.072;2022-09-12T10:11:45;5.35;;;4.40;;
14235;SDS011;7202;50.718;7.072;2022-09-12T10:14:32;6.53;;;4.45;;
14235;SDS011;7202;50.718;7.072;2022-09-12T10:19:53;5.13;;;4.60;;
14235;SDS011;7202;50.718;7.072;2022-09-12T10:22:45;5.45;;;4.38;;
14235;SDS011;7202;50.718;7.072;2022-09-12T10:25:15;4.82;;;4.30;;
14235;SDS011;7202;50.718;7.072;2022-09-12T10:27:50;5.13;;;4.63;;
14235;SDS011;7202;50.718;7.072;2022-09-12T10:30:20;4.85;;;4.30;;
14235;SDS011;7202;50.718;7.072;2022-09-12T10:32:50;4.47;;;4.07;;
14235;SDS011;7202;50.718;7.072;2022-09-12T10:35:22;5.05;;;4.05;;
14235;SDS011;7202;50.718;7.072;2022-09-12T10:37:53;4.75;;;4.35;;
14235;SDS011;7202;50.718;7.072;2022-09-12T10:40:24;4.47;;;4.07;;
14235;SDS011;7202;50.718;7.072;2022-09-12T10:42:55;5.30;;;4.65;;
14235;SDS011;7202;50.718;7.072;2022-09-12T10:45:26;5.13;;;4.63;;
14235;SDS011;7202;50.718;7.072;2022-09-12T10:47:56;5.03;;;4.63;;
14235;SDS011;7202;50.718;7.072;2022-09-12T10:50:37;6.28;;;4.53;;
14235;SDS011;7202;50.718;7.072;2022-09-12T10:53:15;4.32;;;3.92;;
14235;SDS011;7202;50.718;7.072;2022-09-12T10:55:58;4.22;;;3.83;;
14235;SDS011;7202;50.718;7.072;2022-09-12T10:58:35;5.05;;;4.40;;
14235;SDS011;7202;50.718;7.072;2022-09-12T11:01:23;3.97;;;3.55;;
14235;SDS011;7202;50.718;7.072;2022-09-12T11:04:18;4.43;;;4.03;;
14235;SDS011;7202;50.718;7.072;2022-09-12T11:06:56;5.30;;;4.80;;
14235;SDS011;7202;50.718;7.072;2022-09-12T11:09:32;4.18;;;3.78;;
14235;SDS011;7202;50.718;7.072;2022-09-12T11:12:10;4.43;;;3.80;;
14235;SDS011;7202;50.718;7.072;2022-09-12T11:14:46;4.60;;;4.15;;
14235;SDS011;7202;50.718;7.072;2022-09-12T11:17:25;4.78;;;4.05;;
14235;SDS011;7202;50.718;7.072;2022-09-12T11:23:12;4.32;;;3.95;;
14235;SDS011;7202;50.718;7.072;2022-09-12T11:26:06;4.70;;;4.18;;
14235;SDS011;7202;50.718;7.072;2022-09-12T11:28:47;7.28;;;4.70;;
14235;SDS011;7202;50.718;7.072;2022-09-12T11:31:32;5.15;;;4.45;;
14235;SDS011;7202;50.718;7.072;2022-09-12T11:34:09;4.28;;;3.97;;
14235;SDS011;7202;50.718;7.072;2022-09-12T11:36:57;3.97;;;3.45;;
14235;SDS011;7202;50.718;7.072;2022-09-12T11:39:45;4.25;;;3.70;;
14235;SDS011;7202;50.718;7.072;2022-09-12T11:42:23;5.53;;;3.83;;
14235;SDS011;7202;50.718;7.072;2022-09-12T11:44:57;4.32;;;3.90;;
14235;SDS011;7202;50.718;7.072;2022-09-12T11:47:31;3.80;;;3.50;;
14235;SDS011;7202;50.718;7.072;2022-09-12T11:50:02;4.13;;;3.67;;
14235;SDS011;7202;50.718;7.072;2022-09-12T11:52:49;7.75;;;3.28;;
14235;SDS011;7202;50.718;7.072;2022-09-12T11:55:21;3.90;;;3.50;;
14235;SDS011;7202;50.718;7.072;2022-09-12T11:57:53;4.53;;;3.25;;
14235;SDS011;7202;50.718;7.072;2022-09-12T12:00:25;4.18;;;3.08;;
14235;SDS011;7202;50.718;7.072;2022-09-12T12:02:59;3.70;;;3.40;;
14235;SDS011;7202;50.718;7.072;2022-09-12T12:05:34;4.50;;;3.10;;
14235;SDS011;7202;50.718;7.072;2022-09-12T12:08:09;3.15;;;2.85;;
14235;SDS011;7202;50.718;7.072;2022-09-12T12:10:39;6.75;;;3.28;;
14235;SDS011;7202;50.718;7.072;2022-09-12T12:13:18;3.55;;;3.17;;
14235;SDS011;7202;50.718;7.072;2022-09-12T12:15:54;4.03;;;3.30;;
14235;SDS011;7202;50.718;7.072;2022-09-12T12:18:27;3.83;;;3.42;;
14235;SDS011;7202;50.718;7.072;2022-09-12T12:21:14;3.95;;;3.33;;
14235;SDS011;7202;50.718;7.072;2022-09-12T12:24:01;3.55;;;3.25;;
14235;SDS011;7202;50.718;7.072;2022-09-12T12:26:54;4.75;;;3.58;;
14235;SDS011;7202;50.718;7.072;2022-09-12T12:32:21;5.20;;;3.47;;
14235;SDS011;7202;50.718;7.072;2022-09-12T12:41:04;4.30;;;3.40;;
14235;SDS011;7202;50.718;7.072;2022-09-12T12:47:18;5.55;;;3.50;;
14235;SDS011;7202;50.718;7.072;2022-09-12T12:49:51;6.80;;;3.90;;
14235;SDS011;7202;50.718;7.072;2022-09-12T12:52:23;4.28;;;3.88;;
14235;SDS011;7202;50.718;7.072;2022-09-12T12:54:55;3.88;;;3.47;;
14235;SDS011;7202;50.718;7.072;2022-09-12T12:57:34;6.45;;;4.43;;
14235;SDS011;7202;50.718;7.072;2022-09-12T13:00:27;4.30;;;3.72;;
14235;SDS011;7202;50.718;7.072;2022-09-12T13:03:01;5.80;;;3.72;;
14235;SDS011;7202;50.718;7.072;2022-09-12T13:05:38;6.28;;;3.78;;
14235;SDS011;7202;50.718;7.072;2022-09-12T13:08:09;4.63;;;3.80;;
14235;SDS011;7202;50.718;7.072;2022-09-12T13:10:51;6.85;;;3.47;;
14235;SDS011;7202;50.718;7.072;2022-09-12T13:13:23;4.30;;;3.90;;
14235;SDS011;7202;50.718;7.072;2022-09-12T13:15:56;3.83;;;3.53;;
14235;SDS011;7202;50.718;7.072;2022-09-12T13:18:26;5.05;;;4.07;;
14235;SDS011;7202;50.718;7.072;2022-09-12T13:20:59;4.30;;;3.90;;
14235;SDS011;7202;50.718;7.072;2022-09-12T13:23:36;3.33;;;3.08;;
14235;SDS011;7202;50.718;7.072;2022-09-12T13:26:09;5.55;;;3.50;;
14235;SDS011;7202;50.718;7.072;2022-09-12T13:28:39;6.50;;;3.40;;
14235;SDS011;7202;50.718;7.072;2022-09-12T13:31:10;4.93;;;3.13;;
14235;SDS011;7202;50.718;7.072;2022-09-12T13:33:46;4.05;;;3.75;;
14235;SDS011;7202;50.718;7.072;2022-09-12T13:36:22;5.88;;;3.70;;
14235;SDS011;7202;50.718;7.072;2022-09-12T13:39:04;3.65;;;3.35;;
14235;SDS011;7202;50.718;7.072;2022-09-12T13:41:48;4.97;;;3.40;;
14235;SDS011;7202;50.718;7.072;2022-09-12T13:44:38;3.88;;;3.47;;
14235;SDS011;7202;50.718;7.072;2022-09-12T13:47:13;5.45;;;3.75;;
14235;SDS011;7202;50.718;7.072;2022-09-12T13:49:47;3.60;;;3.10;;
14235;SDS011;7202;50.718;7.072;2022-09-12T13:52:17;3.75;;;3.45;;
14235;SDS011;7202;50.718;7.072;2022-09-12T13:54:49;4.97;;;3.40;;
14235;SDS011;7202;50.718;7.072;2022-09-12T13:57:30;4.72;;;3.55;;
14235;SDS011;7202;50.718;7.072;2022-09-12T14:00:03;4.00;;;3.58;;
14235;SDS011;7202;50.718;7.072;2022-09-12T14:02:38;4.10;;;3.70;;
14235;SDS011;7202;50.718;7.072;2022-09-12T14:05:11;4.25;;;3.33;;
14235;SDS011;7202;50.718;7.072;2022-09-12T14:07:46;4.07;;;3.65;;
14235;SDS011;7202;50.718;7.072;2022-09-12T14:10:22;3.88;;;3.58;;
14235;SDS011;7202;50.718;7.072;2022-09-12T14:12:54;4.18;;;3.58;;
14235;SDS011;7202;50.718;7.072;2022-09-12T14:15:25;3.65;;;3.35;;
14235;SDS011;7202;50.718;7.072;2022-09-12T14:17:57;3.63;;;3.22;;
14235;SDS011;7202;50.718;7.072;2022-09-12T14:20:28;6.40;;;3.83;;
14235;SDS011;7202;50.718;7.072;2022-09-12T14:22:59;3.92;;;2.95;;
14235;SDS011;7202;50.718;7.072;2022-09-12T14:25:31;3.60;;;3.30;;
14235;SDS011;7202;50.718;7.072;2022-09-12T14:28:04;3.58;;;3.28;;
14235;SDS011;7202;50.718;7.072;2022-09-12T14:30:36;5.38;;;3.40;;
14235;SDS011;7202;50.718;7.072;2022-09-12T14:33:14;4.18;;;3.40;;
14235;SDS011;7202;50.718;7.072;2022-09-12T14:35:46;4.93;;;3.10;;
14235;SDS011;7202;50.718;7.072;2022-09-12T14:38:18;9.68;;;3.97;;
14235;SDS011;7202;50.718;7.072;2022-09-12T14:40:51;3.78;;;3.30;;
14235;SDS011;7202;50.718;7.072;2022-09-12T14:43:27;3.40;;;3.10;;
14235;SDS011;7202;50.718;7.072;2022-09-12T14:45:58;6.97;;;3.30;;
14235;SDS011;7202;50.718;7.072;2022-09-12T14:48:31;3.05;;;2.75;;
14235;SDS011;7202;50.718;7.072;2022-09-12T14:51:03;3.92;;;2.72;;
14235;SDS011;7202;50.718;7.072;2022-09-12T14:53:33;4.40;;;2.97;;
14235;SDS011;7202;50.718;7.072;2022-09-12T14:56:07;3.67;;;2.90;;
14235;SDS011;7202;50.718;7.072;2022-09-12T14:58:38;4.10;;;2.90;;
14235;SDS011;7202;50.718;7.072;2022-09-12T15:01:25;3.25;;;2.95;;
14235;SDS011;7202;50.718;7.072;2022-09-12T15:03:55;4.28;;;2.30;;
14235;SDS011;7202;50.718;7.072;2022-09-12T15:06:26;2.88;;;2.45;;
14235;SDS011;7202;50.718;7.072;2022-09-12T15:08:56;2.80;;;2.60;;
14235;SDS011;7202;50.718;7.072;2022-09-12T15:11:26;3.15;;;2.28;;
14235;SDS011;7202;50.718;7.072;2022-09-12T15:13:55;9.98;;;2.58;;
14235;SDS011;7202;50.718;7.072;2022-09-12T15:16:23;2.67;;;2.42;;
14235;SDS011;7202;50.718;7.072;2022-09-12T15:18:52;2.97;;;2.40;;
14235;SDS011;7202;50.718;7.072;2022-09-12T15:21:22;2.95;;;2.53;;
14235;SDS011;7202;50.718;7.072;2022-09-12T15:23:51;2.63;;;2.42;;
14235;SDS011;7202;50.718;7.072;2022-09-12T15:26:20;3.97;;;2.13;;
14235;SDS011;7202;50.718;7.072;2022-09-12T15:28:49;4.30;;;2.40;;
14235;SDS011;7202;50.718;7.072;2022-09-12T15:31:21;3.25;;;2.50;;
14235;SDS011;7202;50.718;7.072;2022-09-12T15:33:52;2.30;;;2.10;;
14235;SDS011;7202;50.718;7.072;2022-09-12T15:36:23;3.42;;;2.40;;
14235;SDS011;7202;50.718;7.072;2022-09-12T15:38:52;3.60;;;2.35;;
14235;SDS011;7202;50.718;7.072;2022-09-12T15:41:22;2.10;;;1.90;;
14235;SDS011;7202;50.718;7.072;2022-09-12T15:43:53;2.05;;;1.83;;